Time;durP1;ratioP1;P1;durP2;ratioP2;P2;SDS_P1;SDS_P2;PMS_P1;PMS_P2;Temp;Humidity;BMP_temperature;BMP_pressure;BME280_temperature;BME280_humidity;BME280_pressure;Samples;Min_cycle;Max_cycle;Signal;HPM_P1;HPM_P2
2020/12/12 00:00:37;;;;;;;12.55;8.95;;;;;;;0.71;68.08;100759.52;1746793;80;21115;-44
2020/12/12 00:03:04;;;;;;;12.30;7.85;;;;;;;0.71;68.17;100765.63;1744846;80;21193;-40
2020/12/12 00:05:32;;;;;;;15.72;8.68;;;;;;;0.72;68.23;100762.11;1746553;80;21582;-41
2020/12/12 00:08:03;;;;;;;16.75;10.20;;;;;;;0.73;68.19;100757.72;1743934;80;21158;-41
2020/12/12 00:10:31;;;;;;;;;;;;;;;0.73;68.21;100766.48;1706891;82;21580;-43
2020/12/12 00:12:58;;;;;;;13.62;9.43;;;;;;;0.73;68.23;100757.72;1671002;84;20443;-43
2020/12/12 00:15:25;;;;;;;13.55;8.90;;;;;;;0.72;68.21;100758.62;1745528;80;21142;-42
2020/12/12 00:17:53;;;;;;;14.05;8.53;;;;;;;0.70;68.30;100757.31;1736762;80;21153;-43
2020/12/12 00:20:20;;;;;;;14.33;9.45;;;;;;;0.71;68.35;100756.89;1742646;80;21179;-41
2020/12/12 00:22:48;;;;;;;13.65;8.33;;;;;;;0.71;68.35;100755.58;1745860;80;22223;-41
2020/12/12 00:25:17;;;;;;;14.83;9.38;;;;;;;0.72;68.33;100752.91;1747712;80;21138;-40
2020/12/12 00:27:45;;;;;;;12.35;8.75;;;;;;;0.75;68.36;100748.92;1739065;80;21153;-40
2020/12/12 00:30:12;;;;;;;12.68;9.45;;;;;;;0.77;68.27;100749.78;1732293;80;21130;-40
2020/12/12 00:32:40;;;;;;;16.87;11.05;;;;;;;0.78;68.30;100742.77;1737883;80;21594;-40
2020/12/12 00:35:07;;;;;;;15.93;10.32;;;;;;;0.77;68.37;100747.61;1687315;82;21136;-42
2020/12/12 00:37:34;;;;;;;12.35;9.00;;;;;;;0.77;68.38;100739.28;1732273;80;21115;-44
2020/12/12 00:40:08;;;;;;;15.35;9.60;;;;;;;0.76;68.38;100738.00;1729468;80;21172;-43
2020/12/12 00:42:40;;;;;;;13.93;8.95;;;;;;;0.75;68.42;100742.36;1727622;80;21288;-42
2020/12/12 00:45:07;;;;;;;12.80;8.98;;;;;;;0.73;68.53;100730.15;1747046;80;21189;-42
2020/12/12 00:47:35;;;;;;;12.55;8.85;;;;;;;0.76;68.53;100737.55;1739885;80;21139;-43
2020/12/12 00:50:03;;;;;;;12.75;8.90;;;;;;;0.78;68.62;100731.84;1739147;80;21279;-43
2020/12/12 00:52:30;;;;;;;11.65;8.08;;;;;;;0.82;68.60;100729.58;1730779;81;21457;-43
2020/12/12 00:54:58;;;;;;;13.00;9.35;;;;;;;0.86;68.56;100729.10;1708286;80;21310;-41
2020/12/12 00:57:26;;;;;;;16.27;10.50;;;;;;;0.85;68.56;100732.16;1740459;80;21134;-42
2020/12/12 00:59:54;;;;;;;15.23;9.73;;;;;;;0.83;68.47;100726.50;1697286;82;21139;-43
2020/12/12 01:02:21;;;;;;;17.02;9.63;;;;;;;0.82;68.60;100729.58;1741867;80;21146;-42
2020/12/12 01:04:50;;;;;;;11.53;8.48;;;;;;;0.84;68.60;100723.00;1737362;80;21143;-43
2020/12/12 01:07:22;;;;;;;12.82;9.88;;;;;;;0.87;68.55;100725.58;1734788;80;21119;-45
2020/12/12 01:09:49;;;;;;;14.68;8.73;;;;;;;0.87;68.57;100724.27;1739822;80;21130;-40
2020/12/12 01:12:18;;;;;;;14.38;9.45;;;;;;;0.86;68.52;100724.72;1733150;80;21587;-44
2020/12/12 01:14:46;;;;;;;13.62;8.28;;;;;;;0.85;68.48;100728.66;1733462;80;21111;-44
2020/12/12 01:17:13;;;;;;;13.22;9.13;;;;;;;0.85;68.55;100719.02;1736366;80;21181;-45
2020/12/12 01:19:41;;;;;;;11.60;7.83;;;;;;;0.87;68.54;100716.38;1735808;80;21755;-42
2020/12/12 01:22:09;;;;;;;14.33;9.43;;;;;;;0.86;68.59;100718.60;1734438;80;21206;-40
2020/12/12 01:24:36;;;;;;;11.83;8.70;;;;;;;0.90;68.62;100722.03;1731350;80;21103;-40
2020/12/12 01:27:04;;;;;;;15.68;8.60;;;;;;;0.91;68.55;100722.02;1715795;82;21153;-43
2020/12/12 01:29:31;;;;;;;12.98;8.53;;;;;;;0.93;68.52;100716.28;1745575;80;21157;-43
2020/12/12 01:31:58;;;;;;;13.22;8.70;;;;;;;0.92;68.53;100720.27;1744460;80;21985;-41
2020/12/12 01:34:26;;;;;;;14.53;9.73;;;;;;;0.91;68.50;100718.50;1747058;80;21728;-42
2020/12/12 01:36:53;;;;;;;17.25;10.00;;;;;;;0.91;68.46;100716.77;1749006;80;21127;-42
2020/12/12 01:39:21;;;;;;;11.88;8.38;;;;;;;0.94;68.49;100721.97;1746089;80;21150;-44
2020/12/12 01:41:49;;;;;;;17.62;9.78;;;;;;;0.97;68.51;100719.74;1740766;80;21118;-42
2020/12/12 01:44:23;;;;;;;13.48;8.80;;;;;;;0.98;68.36;100722.36;1723239;82;21149;-44
2020/12/12 01:46:53;;;;;;;12.47;9.88;;;;;;;0.98;68.36;100729.34;1704834;82;21460;-43
2020/12/12 01:49:23;;;;;;;14.33;9.00;;;;;;;1.01;68.29;100727.56;1712486;82;21180;-43
2020/12/12 01:51:52;;;;;;;14.18;9.90;;;;;;;1.02;68.24;100717.91;1684122;83;21111;-42
2020/12/12 01:54:19;;;;;;;12.30;9.23;;;;;;;1.02;68.21;100718.77;1665545;83;21510;-41
2020/12/12 01:56:56;;;;;;;15.50;9.58;;;;;;;1.02;68.23;100722.72;1701110;82;21155;-43
2020/12/12 01:59:35;;;;;;;14.15;9.68;;;;;;;1.02;68.16;100722.72;1699371;82;21502;-44
2020/12/12 02:02:02;;;;;;;13.35;9.75;;;;;;;1.01;68.09;100726.70;1709140;82;21150;-42
2020/12/12 02:04:30;;;;;;;12.35;9.03;;;;;;;0.99;68.11;100724.08;1710068;82;21114;-43
2020/12/12 02:06:57;;;;;;;14.63;9.55;;;;;;;0.99;68.03;100722.77;1683229;83;21416;-43
2020/12/12 02:09:25;;;;;;;15.23;9.13;;;;;;;0.98;67.93;100723.67;1697749;83;21476;-44
2020/12/12 02:11:52;;;;;;;12.33;9.05;;;;;;;0.97;67.93;100711.41;1698225;82;21163;-45
2020/12/12 02:14:20;;;;;;;12.50;9.55;;;;;;;0.96;67.92;100715.36;1699653;83;21151;-40
2020/12/12 02:17:00;;;;;;;14.60;11.22;;;;;;;0.97;67.75;100714.49;1699214;83;21260;-42
2020/12/12 02:19:27;;;;;;;12.35;8.90;;;;;;;0.99;67.74;100712.27;1696817;83;21611;-42
2020/12/12 02:21:57;;;;;;;16.15;10.15;;;;;;;1.00;67.64;100710.05;1692055;83;21193;-42
2020/12/12 02:24:25;;;;;;;13.95;10.20;;;;;;;0.98;67.67;100707.91;1697487;83;21186;-42
2020/12/12 02:26:53;;;;;;;15.13;9.93;;;;;;;0.98;67.63;100714.48;1684100;83;21123;-47
2020/12/12 02:29:20;;;;;;;16.50;10.88;;;;;;;0.97;67.54;100708.78;1689857;83;21480;-43
2020/12/12 02:31:48;;;;;;;13.48;9.58;;;;;;;0.98;67.59;100709.65;1751779;80;21123;-43
2020/12/12 02:34:26;;;;;;;14.47;11.15;;;;;;;0.98;67.54;100705.29;1751029;80;21149;-42
2020/12/12 02:36:57;;;;;;;14.63;10.18;;;;;;;0.98;67.36;100709.23;1741482;80;21181;-41
2020/12/12 02:39:24;;;;;;;14.70;10.68;;;;;;;0.99;67.38;100703.52;1702581;82;21165;-41
2020/12/12 02:41:52;;;;;;;11.70;9.98;;;;;;;0.98;67.12;100702.66;1746014;80;21157;-41
2020/12/12 02:44:22;;;;;;;13.40;8.65;;;;;;;0.97;67.09;100703.98;1743615;80;21555;-41
2020/12/12 02:46:50;;;;;;;16.23;10.00;;;;;;;0.96;67.04;100703.12;1739396;80;21169;-42
2020/12/12 02:49:17;;;;;;;14.83;9.23;;;;;;;0.94;66.92;100697.47;1742555;80;21173;-41
2020/12/12 02:51:45;;;;;;;18.95;11.22;;;;;;;0.96;66.92;100695.66;1744279;80;21157;-42
2020/12/12 02:54:13;;;;;;;14.87;10.70;;;;;;;0.97;67.00;100699.59;1747798;80;21183;-41
2020/12/12 02:56:40;;;;;;;14.58;9.38;;;;;;;0.96;66.99;100696.56;1742544;80;21173;-44
2020/12/12 02:59:08;;;;;;;13.30;9.70;;;;;;;0.96;67.00;100701.81;1744486;80;21187;-41
2020/12/12 03:01:40;;;;;;;15.80;10.05;;;;;;;0.93;66.96;100703.59;1749408;80;21450;-46
2020/12/12 03:04:08;;;;;;;15.58;10.08;;;;;;;0.91;67.03;100697.08;1705496;82;21588;-44
2020/12/12 03:06:38;;;;;;;12.88;9.10;;;;;;;0.91;66.98;100695.77;1745386;80;21328;-43
2020/12/12 03:09:06;;;;;;;16.30;9.45;;;;;;;0.90;66.95;100699.72;1739938;80;21161;-43
2020/12/12 03:11:34;;;;;;;17.30;10.82;;;;;;;0.91;66.92;100701.02;1750908;80;21157;-43
2020/12/12 03:14:01;;;;;;;13.45;9.28;;;;;;;0.91;66.91;100697.50;1735604;80;21149;-42
2020/12/12 03:16:29;;;;;;;12.37;8.73;;;;;;;0.92;66.83;100703.19;1742139;80;21138;-42
2020/12/12 03:18:57;;;;;;;12.07;9.40;;;;;;;0.89;66.68;100699.30;1749107;80;21141;-46
2020/12/12 03:21:24;;;;;;;12.07;8.83;;;;;;;0.86;66.62;100703.70;1745095;80;21122;-43
2020/12/12 03:23:52;;;;;;;15.03;9.28;;;;;;;0.86;66.38;100697.59;1750867;80;21471;-42
2020/12/12 03:26:19;;;;;;;13.32;9.83;;;;;;;0.83;66.30;100697.61;1741052;80;21889;-42
2020/12/12 03:28:47;;;;;;;14.50;9.63;;;;;;;0.82;66.44;100694.58;1748197;80;21157;-43
2020/12/12 03:31:14;;;;;;;13.95;11.12;;;;;;;0.82;66.50;100696.75;1733879;80;21158;-44
2020/12/12 03:33:42;;;;;;;15.35;9.90;;;;;;;0.84;66.40;100694.12;1723838;81;21566;-42
2020/12/12 03:36:09;;;;;;;16.52;9.60;;;;;;;0.83;66.30;100696.30;1733240;80;21474;-42
2020/12/12 03:38:37;;;;;;;14.98;10.03;;;;;;;0.82;66.33;100694.13;1747671;80;21134;-43
2020/12/12 03:41:04;;;;;;;15.78;9.90;;;;;;;0.81;66.16;100701.59;1699137;82;21143;-43
2020/12/12 03:43:32;;;;;;;13.60;9.40;;;;;;;0.82;66.07;100699.83;1733183;81;21418;-42
2020/12/12 03:46:01;;;;;;;12.65;9.45;;;;;;;0.79;65.99;100707.31;1741960;80;21163;-43
2020/12/12 03:48:29;;;;;;;11.65;9.38;;;;;;;0.79;66.04;100708.63;1740345;80;21170;-41
2020/12/12 03:50:57;;;;;;;18.02;10.25;;;;;;;0.78;66.13;100697.71;1737871;80;21130;-43
2020/12/12 03:53:24;;;;;;;17.37;10.08;;;;;;;0.78;65.93;100709.53;1696253;82;21171;-43
2020/12/12 03:55:52;;;;;;;14.40;11.22;;;;;;;0.77;65.99;100707.77;1739833;80;21407;-45
2020/12/12 03:58:19;;;;;;;14.87;10.43;;;;;;;0.76;66.08;100705.19;1749302;80;21167;-44
2020/12/12 04:00:47;;;;;;;15.05;9.98;;;;;;;0.74;65.97;100706.96;1702800;82;21133;-44
2020/12/12 04:03:14;;;;;;;15.48;9.75;;;;;;;0.74;66.03;100710.45;1736451;80;21150;-42
2020/12/12 04:05:49;;;;;;;16.07;9.00;;;;;;;0.74;65.95;100705.65;1748269;80;21182;-44
2020/12/12 04:08:27;;;;;;;15.53;10.38;;;;;;;0.72;65.70;100708.73;1739282;80;21143;-43
2020/12/12 04:10:55;;;;;;;13.10;9.18;;;;;;;0.71;65.80;100715.75;1740099;80;21142;-44
2020/12/12 04:13:22;;;;;;;15.43;10.95;;;;;;;0.71;65.88;100707.87;1741404;81;21150;-42
2020/12/12 04:15:50;;;;;;;19.07;11.75;;;;;;;0.72;65.80;100708.73;1702884;82;21136;-43
2020/12/12 04:18:18;;;;;;;17.00;10.10;;;;;;;0.69;65.68;100703.08;1736968;80;21154;-46
2020/12/12 04:20:45;;;;;;;16.25;10.90;;;;;;;0.62;65.86;100700.98;1728428;80;21137;-43
2020/12/12 04:23:13;;;;;;;19.55;11.68;;;;;;;0.60;65.92;100700.58;1729762;80;21174;-42
2020/12/12 04:25:41;;;;;;;14.93;9.05;;;;;;;0.60;65.87;100701.44;1734056;80;22160;-40
2020/12/12 04:28:08;;;;;;;12.85;9.15;;;;;;;0.62;65.91;100700.12;1733208;80;21149;-43
2020/12/12 04:30:36;;;;;;;15.72;10.20;;;;;;;0.60;65.79;100694.87;1738118;80;21122;-44
2020/12/12 04:33:05;;;;;;;17.98;10.45;;;;;;;0.60;65.55;100701.44;1738259;80;21162;-43
2020/12/12 04:35:34;;;;;;;14.25;10.08;;;;;;;0.56;65.59;100695.83;1744402;80;22034;-41
2020/12/12 04:38:03;;;;;;;16.62;10.03;;;;;;;0.52;65.65;100701.14;1744633;80;21183;-44
2020/12/12 04:40:31;;;;;;;15.25;10.38;;;;;;;0.49;65.61;100694.63;1696268;82;21151;-42
2020/12/12 04:43:02;;;;;;;15.48;10.15;;;;;;;0.46;65.65;100695.53;1743708;80;21269;-41
2020/12/12 04:45:34;;;;;;;12.85;9.20;;;;;;;0.48;65.52;100695.08;1694137;82;21184;-42
2020/12/12 04:48:06;;;;;;;18.10;10.00;;;;;;;0.47;65.48;100695.95;1718387;80;21149;-43
2020/12/12 04:50:33;;;;;;;13.90;9.45;;;;;;;0.44;65.36;100688.12;1705460;82;21163;-43
2020/12/12 04:53:16;;;;;;;14.98;10.50;;;;;;;0.45;65.46;100687.67;1755837;80;21466;-45
2020/12/12 04:55:49;;;;;;;16.50;9.93;;;;;;;0.43;65.47;100686.40;1709170;82;22042;-39
2020/12/12 04:58:24;;;;;;;13.03;10.05;;;;;;;0.41;65.36;100681.61;1733479;80;21110;-44
2020/12/12 05:00:55;;;;;;;13.68;8.93;;;;;;;0.39;65.20;100689.48;1747034;80;21591;-41
2020/12/12 05:03:25;;;;;;;14.23;9.53;;;;;;;0.40;65.11;100678.13;1747130;80;21154;-41
2020/12/12 05:05:53;;;;;;;13.48;8.70;;;;;;;0.39;65.05;100684.24;1737829;81;21155;-41
2020/12/12 05:08:20;;;;;;;12.05;8.90;;;;;;;0.39;65.13;100679.44;1744787;80;21287;-40
2020/12/12 05:10:50;;;;;;;13.53;9.08;;;;;;;0.39;65.39;100678.13;1747590;80;21466;-43
2020/12/12 05:13:20;;;;;;;13.32;10.15;;;;;;;0.40;65.14;100676.81;1747590;80;21130;-45
2020/12/12 05:15:49;;;;;;;10.82;7.80;;;;;;;0.41;64.82;100668.48;1734428;80;21141;-41
2020/12/12 05:18:17;;;;;;;15.95;9.20;;;;;;;0.40;64.73;100675.92;1750378;80;21158;-43
2020/12/12 05:20:44;;;;;;;13.28;8.45;;;;;;;0.39;64.52;100672.44;1743579;80;21157;-41
2020/12/12 05:23:21;;;;;;;13.55;8.65;;;;;;;0.41;64.54;100672.42;1750017;80;21157;-44
2020/12/12 05:25:49;;;;;;;12.93;9.10;;;;;;;0.36;64.50;100675.11;1741483;80;21193;-43
2020/12/12 05:30:52;;;;;;;13.00;8.75;;;;;;;0.36;64.08;100672.94;1799774;78;22390;-41
2020/12/12 05:33:24;;;;;;;11.53;7.95;;;;;;;0.29;64.08;100672.59;1748370;80;21173;-41
2020/12/12 05:35:52;;;;;;;10.23;7.97;;;;;;;0.25;64.03;100680.06;1709341;82;21153;-41
2020/12/12 05:38:20;;;;;;;16.62;8.98;;;;;;;0.22;64.05;100666.54;1739414;81;21569;-41
2020/12/12 05:40:55;;;;;;;12.88;8.08;;;;;;;0.18;64.00;100673.59;1744931;81;21169;-41
2020/12/12 05:43:34;;;;;;;10.88;7.90;;;;;;;0.14;64.08;100669.72;1744751;81;21149;-41
2020/12/12 05:46:00;;;;;;;10.70;7.92;;;;;;;0.12;64.12;100680.66;1742318;81;21138;-48
2020/12/12 05:48:28;;;;;;;14.87;8.48;;;;;;;0.12;64.13;100682.83;1715495;81;21730;-46
2020/12/12 05:50:56;;;;;;;12.25;8.98;;;;;;;0.10;64.12;100674.56;1716232;82;21176;-44
2020/12/12 05:53:23;;;;;;;11.90;8.28;;;;;;;0.08;64.27;100670.67;1724976;82;21133;-42
2020/12/12 05:55:54;;;;;;;11.83;7.62;;;;;;;0.10;64.30;100670.63;1724491;81;21144;-41
2020/12/12 05:58:23;;;;;;;12.85;8.38;;;;;;;0.10;64.37;100674.14;1740927;81;21145;-43
2020/12/12 06:00:52;;;;;;;12.40;8.48;;;;;;;0.12;64.28;100673.66;1732500;80;21600;-44
2020/12/12 06:03:31;;;;;;;14.97;9.73;;;;;;;0.14;64.22;100671.02;1744591;80;21575;-45
2020/12/12 06:06:05;;;;;;;11.60;8.63;;;;;;;0.14;64.40;100669.72;1740545;80;21134;-44
2020/12/12 06:08:38;;;;;;;11.25;8.33;;;;;;;0.19;64.20;100674.00;1744735;80;21172;-47
2020/12/12 06:11:09;;;;;;;12.63;8.83;;;;;;;0.21;64.08;100670.92;1737836;80;21488;-47
2020/12/12 06:13:37;;;;;;;12.50;8.83;;;;;;;0.20;64.01;100667.89;1739356;80;21140;-46
2020/12/12 06:16:07;;;;;;;17.30;9.80;;;;;;;0.18;64.05;100665.73;1747815;80;21128;-44
2020/12/12 06:19:13;;;;;;;12.80;9.58;;;;;;;0.17;64.13;100663.11;1746132;80;21586;-46
2020/12/12 06:21:45;;;;;;;12.53;8.53;;;;;;;0.15;64.12;100672.75;1741254;80;21153;-44
2020/12/12 06:24:17;;;;;;;13.00;8.70;;;;;;;0.11;64.20;100666.69;1720655;82;21272;-44
2020/12/12 06:27:04;;;;;;;11.33;8.85;;;;;;;0.11;64.37;100676.31;1736101;80;21153;-46
2020/12/12 06:29:43;;;;;;;12.78;8.68;;;;;;;0.11;64.42;100675.00;1726377;80;21115;-46
2020/12/12 06:32:15;;;;;;;12.03;8.10;;;;;;;0.12;64.40;100674.97;1739744;81;21146;-50
2020/12/12 06:34:51;;;;;;;15.65;8.35;;;;;;;0.13;64.25;100674.55;1759188;79;21181;-46
2020/12/12 06:37:32;;;;;;;12.15;9.53;;;;;;;0.08;64.32;100671.98;1756806;80;21149;-44
2020/12/12 06:40:12;;;;;;;13.38;8.85;;;;;;;0.04;64.48;100674.65;1761214;81;21303;-48
2020/12/12 06:42:44;;;;;;;12.63;8.45;;;;;;;0.01;64.59;100679.49;1758147;79;21610;-46
2020/12/12 06:45:20;;;;;;;11.88;8.13;;;;;;;0.00;64.80;100676.45;1756807;79;21154;-46
2020/12/12 06:47:50;;;;;;;9.85;7.95;;;;;;;-0.02;64.42;100671.67;1757710;79;21145;-46
2020/12/12 06:50:24;;;;;;;11.75;7.72;;;;;;;-0.06;64.43;100671.27;1760102;81;21107;-45
2020/12/12 06:52:53;;;;;;;10.08;7.97;;;;;;;-0.12;64.48;100668.28;1754633;80;21137;-46
2020/12/12 06:55:21;;;;;;;11.90;7.40;;;;;;;-0.14;64.55;100662.63;1756285;80;21634;-46
2020/12/12 06:57:55;;;;;;;12.37;7.97;;;;;;;-0.18;64.81;100664.41;1756532;79;21146;-46
2020/12/12 07:00:30;;;;;;;10.78;7.55;;;;;;;-0.22;64.82;100656.16;1756107;80;21106;-46
2020/12/12 07:03:00;;;;;;;11.50;7.90;;;;;;;-0.25;65.05;100653.59;1698212;83;21162;-46
2020/12/12 07:05:30;;;;;;;10.98;7.97;;;;;;;-0.25;65.20;100657.07;1684846;83;21135;-49
2020/12/12 07:08:03;;;;;;;11.93;7.35;;;;;;;-0.24;65.20;100653.55;1764898;80;21110;-48
2020/12/12 07:10:31;;;;;;;11.57;8.40;;;;;;;-0.24;65.29;100654.00;1758769;79;21146;-47
2020/12/12 07:12:59;;;;;;;10.65;7.58;;;;;;;-0.23;65.46;100657.92;1759671;80;21143;-45
2020/12/12 07:15:30;;;;;;;12.35;8.88;;;;;;;-0.22;65.48;100653.09;1757192;79;21111;-47
2020/12/12 07:18:07;;;;;;;10.72;7.55;;;;;;;-0.21;65.48;100648.72;1760873;79;21138;-45
2020/12/12 07:20:38;;;;;;;14.85;8.88;;;;;;;-0.21;65.61;100647.41;1696314;83;21619;-45
2020/12/12 07:23:06;;;;;;;15.93;10.55;;;;;;;-0.22;65.69;100649.16;1696885;83;21685;-45
2020/12/12 07:25:34;;;;;;;16.07;9.83;;;;;;;-0.23;65.57;100651.79;1689213;84;21175;-44
2020/12/12 07:28:03;;;;;;;14.93;9.77;;;;;;;-0.25;65.80;100647.89;1756766;81;21218;-45
2020/12/12 07:30:33;;;;;;;12.90;9.30;;;;;;;-0.25;65.91;100645.72;1761826;81;22054;-45
2020/12/12 07:33:01;;;;;;;13.72;8.55;;;;;;;-0.28;66.00;100640.08;1756646;80;21137;-45
2020/12/12 07:35:31;;;;;;;14.95;9.85;;;;;;;-0.29;66.00;100642.25;1759684;80;21154;-45
2020/12/12 07:38:06;;;;;;;14.63;10.00;;;;;;;-0.29;66.14;100640.94;1759437;79;21127;-44
2020/12/12 07:40:37;;;;;;;17.30;11.28;;;;;;;-0.29;66.11;100642.25;1755013;79;21103;-45
2020/12/12 07:43:07;;;;;;;;;;;;;;;-0.30;66.20;100639.67;1756216;79;21124;-45
2020/12/12 07:46:04;;;;;;;15.00;10.15;;;;;;;-0.31;66.29;100642.70;1761995;79;20851;-44
2020/12/12 07:48:27;;;;;;;14.83;9.60;;;;;;;-0.31;66.37;100644.02;1751478;80;21534;-46
2020/12/12 07:50:55;;;;;;;15.40;10.60;;;;;;;-0.31;66.54;100649.70;1757604;79;21137;-45
2020/12/12 07:53:22;;;;;;;16.95;11.15;;;;;;;-0.32;66.59;100648.84;1757948;81;21273;-45
2020/12/12 07:55:56;;;;;;;14.70;10.32;;;;;;;-0.33;66.54;100643.19;1757739;79;21135;-45
2020/12/12 07:58:26;;;;;;;17.82;9.90;;;;;;;-0.34;66.77;100643.20;1755142;80;21642;-50
2020/12/12 08:01:02;;;;;;;15.23;10.53;;;;;;;-0.34;66.71;100641.44;1760123;79;21158;-52
2020/12/12 08:03:31;;;;;;;15.60;9.97;;;;;;;-0.34;66.50;100643.20;1759386;80;21934;-44
2020/12/12 08:06:10;;;;;;;16.73;10.40;;;;;;;-0.37;66.59;100639.30;1759090;79;21151;-44
2020/12/12 08:08:38;;;;;;;15.38;10.32;;;;;;;-0.37;66.70;100644.09;1758598;79;21126;-44
2020/12/12 08:11:07;;;;;;;16.60;10.03;;;;;;;-0.38;66.83;100643.66;1756391;80;21672;-42
2020/12/12 08:13:34;;;;;;;17.53;10.10;;;;;;;-0.37;66.84;100643.23;1764403;79;21142;-44
2020/12/12 08:16:17;;;;;;;12.30;9.03;;;;;;;-0.39;66.88;100646.31;1762858;79;21134;-45
2020/12/12 08:18:41;;;;;;;18.42;11.68;;;;;;;-0.40;67.01;100648.48;1763082;80;21114;-45
2020/12/12 08:21:15;;;;;;;15.17;10.40;;;;;;;-0.42;67.11;100644.59;1752426;79;21146;-45
2020/12/12 08:23:43;;;;;;;15.60;9.17;;;;;;;-0.42;67.20;100643.28;1761521;81;21832;-47
2020/12/12 08:26:21;;;;;;;18.45;10.35;;;;;;;-0.41;67.40;100644.14;1765018;79;21138;-49
2020/12/12 08:28:49;;;;;;;16.27;10.50;;;;;;;-0.40;67.45;100648.07;1760607;81;21146;-45
2020/12/12 08:31:18;;;;;;;15.00;10.85;;;;;;;-0.38;67.53;100647.58;1752051;79;21598;-48
2020/12/12 08:33:54;;;;;;;15.95;9.73;;;;;;;-0.36;67.61;100650.20;1765818;80;21134;-44
2020/12/12 08:36:24;;;;;;;16.77;9.90;;;;;;;-0.35;67.66;100647.58;1739749;81;21144;-46
2020/12/12 08:39:04;;;;;;;17.03;10.93;;;;;;;-0.30;67.72;100639.22;1795380;78;23562;-47
2020/12/12 08:41:38;;;;;;;21.93;10.58;;;;;;;-0.32;67.68;100637.50;1760321;80;21105;-45
2020/12/12 08:44:06;;;;;;;14.70;9.45;;;;;;;-0.31;67.80;100635.29;1782944;79;21117;-43
2020/12/12 08:46:34;;;;;;;11.85;8.98;;;;;;;-0.31;67.65;100636.16;1746401;81;21640;-45
2020/12/12 08:49:02;;;;;;;14.83;9.45;;;;;;;-0.29;67.79;100633.52;1709510;81;21150;-44
2020/12/12 08:51:30;;;;;;;15.50;9.35;;;;;;;-0.29;67.55;100629.14;1723486;81;21149;-45
2020/12/12 08:53:58;;;;;;;14.63;8.63;;;;;;;-0.29;67.66;100633.52;1748100;81;21142;-46
2020/12/12 08:56:28;;;;;;;13.35;8.68;;;;;;;-0.26;67.67;100637.41;1748889;81;21137;-45
2020/12/12 08:59:02;;;;;;;15.15;8.65;;;;;;;-0.27;67.68;100631.31;1746104;81;21129;-44
2020/12/12 09:01:42;;;;;;;17.73;8.98;;;;;;;-0.29;67.68;100628.28;1719940;83;21435;-43
2020/12/12 09:04:14;;;;;;;;;;;;;;;-0.32;67.80;100630.95;1710011;83;21150;-44
2020/12/12 09:06:56;;;;;;;12.85;8.38;;;;;;;-0.32;67.92;100627.02;1705894;83;20164;-46
2020/12/12 09:09:30;;;;;;;12.40;7.75;;;;;;;-0.30;67.96;100622.18;1738396;81;21539;-48
2020/12/12 09:12:05;;;;;;;13.40;8.88;;;;;;;-0.32;68.20;100620.02;1724795;83;21855;-47
2020/12/12 09:14:36;;;;;;;15.23;8.80;;;;;;;-0.30;68.19;100624.80;1722725;83;21519;-44
2020/12/12 09:17:06;;;;;;;14.98;9.20;;;;;;;-0.27;68.20;100622.14;1716516;83;21162;-46
2020/12/12 09:19:37;;;;;;;15.50;9.00;;;;;;;-0.25;68.22;100624.75;1721725;83;21137;-46
2020/12/12 09:22:09;;;;;;;13.60;9.10;;;;;;;-0.24;68.16;100620.78;1709289;83;21563;-49
2020/12/12 09:24:36;;;;;;;;;;;;;;;-0.23;68.06;100615.09;1717077;83;21434;-48
2020/12/12 09:27:03;;;;;;;14.25;9.90;;;;;;;-0.22;68.02;100614.23;1714324;82;20187;-47
2020/12/12 09:29:31;;;;;;;15.55;10.40;;;;;;;-0.23;68.13;100606.81;1746597;81;21174;-46
2020/12/12 09:31:58;;;;;;;16.57;11.63;;;;;;;-0.22;68.11;100607.22;1705085;82;21146;-48
2020/12/12 09:34:26;;;;;;;14.93;8.63;;;;;;;-0.21;68.19;100602.84;1728997;81;21551;-46
2020/12/12 09:36:54;;;;;;;17.98;10.32;;;;;;;-0.19;68.20;100602.83;1717860;81;21626;-47
2020/12/12 09:39:21;;;;;;;14.50;9.10;;;;;;;-0.16;68.30;100596.23;1700499;84;21471;-47
2020/12/12 09:41:51;;;;;;;20.65;11.10;;;;;;;-0.15;68.22;100588.78;1698893;83;21155;-48
2020/12/12 09:44:18;;;;;;;16.97;9.68;;;;;;;-0.15;68.35;100582.22;1698679;82;21138;-44
2020/12/12 09:46:45;;;;;;;16.02;10.20;;;;;;;-0.15;68.15;100580.50;1695303;84;21575;-45
2020/12/12 09:49:13;;;;;;;19.27;9.95;;;;;;;-0.16;68.24;100568.70;1708715;83;21142;-46
2020/12/12 09:51:40;;;;;;;14.63;9.50;;;;;;;-0.15;68.21;100571.73;1712128;82;21162;-47
2020/12/12 09:54:08;;;;;;;13.70;9.48;;;;;;;-0.14;68.27;100575.66;1659818;86;21154;-47
2020/12/12 09:56:36;;;;;;;15.93;9.08;;;;;;;-0.13;68.30;100563.41;1658402;85;21135;-47
2020/12/12 09:59:04;;;;;;;16.97;10.23;;;;;;;-0.13;68.51;100564.73;1656334;85;21570;-46
2020/12/12 10:01:32;;;;;;;13.55;9.88;;;;;;;-0.13;68.35;100565.59;1719456;83;21166;-46
2020/12/12 10:04:00;;;;;;;18.20;10.72;;;;;;;-0.14;68.27;100563.00;1714855;82;21154;-45
2020/12/12 10:06:27;;;;;;;17.52;10.35;;;;;;;-0.16;68.30;100563.02;1710180;83;21134;-45
2020/12/12 10:08:55;;;;;;;18.02;11.22;;;;;;;-0.15;68.26;100566.08;1709207;81;21288;-47
2020/12/12 10:11:23;;;;;;;17.10;10.05;;;;;;;-0.17;68.24;100558.67;1678682;83;21158;-47
2020/12/12 10:13:50;;;;;;;15.50;9.40;;;;;;;-0.19;68.29;100549.95;1711253;82;21158;-46
2020/12/12 10:16:21;;;;;;;15.23;9.65;;;;;;;-0.18;68.50;100544.26;1705830;83;21145;-44
2020/12/12 10:18:49;;;;;;;17.55;10.28;;;;;;;-0.16;68.32;100530.69;1706687;83;21590;-45
2020/12/12 10:21:17;;;;;;;14.65;10.10;;;;;;;-0.12;68.59;100537.19;1709572;82;21464;-45
2020/12/12 10:23:44;;;;;;;15.90;10.58;;;;;;;-0.12;68.65;100533.25;1710519;83;21628;-44
2020/12/12 10:26:21;;;;;;;16.17;9.28;;;;;;;-0.13;68.37;100539.37;1712920;83;21154;-44
2020/12/12 10:29:06;;;;;;;14.70;9.98;;;;;;;-0.16;68.27;100538.56;1677396;83;21150;-45
2020/12/12 10:31:33;;;;;;;13.75;9.78;;;;;;;-0.19;68.22;100538.61;1706075;83;21166;-45
2020/12/12 10:34:01;;;;;;;15.55;9.60;;;;;;;-0.20;68.26;100536.85;1705974;83;21594;-45
2020/12/12 10:36:29;;;;;;;17.15;11.70;;;;;;;-0.20;68.10;100536.44;1675386;83;21182;-45
2020/12/12 10:38:56;;;;;;;18.02;10.98;;;;;;;-0.23;67.97;100542.59;1736297;80;21606;-46
2020/12/12 10:41:28;;;;;;;15.18;9.80;;;;;;;-0.25;68.04;100539.11;1752818;80;21582;-45
2020/12/12 10:43:53;;;;;;;18.75;11.28;;;;;;;-0.26;67.97;100539.12;1743385;80;21171;-45
2020/12/12 10:46:21;;;;;;;15.32;9.88;;;;;;;-0.27;67.90;100533.47;1752532;80;21177;-44
2020/12/12 10:48:48;;;;;;;18.35;12.05;;;;;;;-0.26;67.90;100536.05;1751949;81;21118;-49
2020/12/12 10:51:16;;;;;;;15.88;10.60;;;;;;;-0.26;67.94;100537.81;1754849;80;21162;-48
2020/12/12 10:53:45;;;;;;;16.93;11.23;;;;;;;-0.23;68.15;100536.03;1742204;80;21653;-47
2020/12/12 10:56:13;;;;;;;17.10;11.45;;;;;;;-0.23;68.07;100533.41;1753063;81;21162;-47
2020/12/12 10:58:40;;;;;;;15.53;9.97;;;;;;;-0.24;68.05;100529.03;1750169;80;21127;-47
2020/12/12 11:01:08;;;;;;;16.50;10.75;;;;;;;-0.24;68.13;100525.55;1749227;80;21150;-49
2020/12/12 11:03:35;;;;;;;14.93;10.10;;;;;;;-0.24;68.12;100526.87;1746723;81;21142;-48
2020/12/12 11:06:03;;;;;;;15.85;12.23;;;;;;;-0.23;68.10;100527.27;1747439;80;21138;-47
2020/12/12 11:08:31;;;;;;;16.30;11.57;;;;;;;-0.23;68.26;100522.92;1751097;81;21131;-42
2020/12/12 11:11:00;;;;;;;16.43;11.53;;;;;;;-0.23;68.18;100515.06;1750714;80;21138;-44
2020/12/12 11:13:28;;;;;;;15.25;11.30;;;;;;;-0.25;68.03;100524.69;1754027;79;21150;-46
2020/12/12 11:15:56;;;;;;;14.70;11.07;;;;;;;-0.28;67.88;100528.67;1757180;80;21261;-43
2020/12/12 11:18:24;;;;;;;15.37;10.73;;;;;;;-0.29;67.90;100532.16;1756520;79;21158;-46
2020/12/12 11:20:51;;;;;;;17.70;11.63;;;;;;;-0.29;67.96;100541.34;1753189;81;21146;-46
2020/12/12 11:23:19;;;;;;;17.82;9.68;;;;;;;-0.28;68.02;100539.58;1750793;80;21515;-45
2020/12/12 11:25:47;;;;;;;16.30;10.68;;;;;;;-0.28;68.13;100539.58;1748686;80;21162;-45
2020/12/12 11:28:15;;;;;;;16.60;10.85;;;;;;;-0.29;68.21;100543.95;1760510;81;21157;-46
2020/12/12 11:30:44;;;;;;;14.68;9.98;;;;;;;-0.29;68.22;100547.89;1763550;80;21102;-50
2020/12/12 11:33:11;;;;;;;17.85;11.90;;;;;;;-0.28;68.32;100548.75;1678822;83;21160;-48